createdAt,value
2023-04-27T00:02:12.003Z,101894.25
2023-04-27T00:04:41.691Z,101903.59
2023-04-27T00:07:08.526Z,101889.28
2023-04-27T00:09:35.253Z,101893.59
2023-04-27T00:12:04.121Z,101890.59
2023-04-27T00:14:30.884Z,101880.78
2023-04-27T00:16:59.819Z,101896.59
2023-04-27T00:19:26.549Z,101895.47
2023-04-27T00:21:58.191Z,101884.03
2023-04-27T00:24:24.895Z,101882.03
2023-04-27T00:26:53.801Z,101875.78
2023-04-27T00:29:20.620Z,101892.44
2023-04-27T00:31:49.478Z,101887.97
2023-04-27T00:34:16.575Z,101879.94
2023-04-27T00:36:43.200Z,101872.69
2023-04-27T00:39:09.807Z,101868.31
2023-04-27T00:41:39.727Z,101838.88
2023-04-27T00:44:06.488Z,101855.16
2023-04-27T00:46:33.957Z,101850.06
2023-04-27T00:49:01.420Z,101852.56
2023-04-27T00:51:31.510Z,101849.09
2023-04-27T00:53:58.998Z,101845.50
2023-04-27T00:56:25.866Z,101822.25
2023-04-27T00:58:52.505Z,101843.47
2023-04-27T01:01:20.743Z,101840.66
2023-04-27T01:03:49.796Z,101834.72
2023-04-27T01:06:16.765Z,101837.31
2023-04-27T01:08:46.944Z,101834.72
2023-04-27T01:11:16.171Z,101847.03
2023-04-27T01:13:42.836Z,101835.78
2023-04-27T01:16:09.453Z,101842.03
2023-04-27T01:18:36.090Z,101836.84
2023-04-27T01:21:03.329Z,101835.25
2023-04-27T01:23:32.441Z,101836.28
2023-04-27T01:25:58.998Z,101839.00
2023-04-27T01:28:27.818Z,101822.28
2023-04-27T01:30:56.871Z,101833.72
2023-04-27T01:33:28.071Z,101832.94
2023-04-27T01:35:57.088Z,101828.53
2023-04-27T01:38:24.265Z,101835.53
2023-04-27T01:40:50.988Z,101834.72
2023-04-27T01:43:20.107Z,101832.13
2023-04-27T01:45:46.928Z,101836.50
2023-04-27T01:48:16.613Z,101838.13
2023-04-27T01:50:45.572Z,101829.38
2023-04-27T01:53:12.492Z,101839.75
2023-04-27T01:55:42.043Z,101851.28
2023-04-27T01:58:08.675Z,101858.44
2023-04-27T02:00:35.343Z,101860.28
2023-04-27T02:03:02.426Z,101866.41
2023-04-27T02:05:31.493Z,101834.72
2023-04-27T02:07:58.041Z,101862.88
2023-04-27T02:10:24.801Z,101862.88
2023-04-27T02:12:51.593Z,101861.13
2023-04-27T02:15:18.304Z,101843.31
2023-04-27T02:17:45.653Z,101860.16
2023-04-27T02:20:12.664Z,101847.06
2023-04-27T02:22:45.245Z,101853.22
2023-04-27T02:25:16.073Z,101848.94
2023-04-27T02:27:45.291Z,101827.66
2023-04-27T02:30:12.843Z,101841.97
2023-04-27T02:32:41.616Z,101840.91
2023-04-27T02:35:09.050Z,101830.25
2023-04-27T02:37:35.831Z,101834.88
2023-04-27T02:40:04.526Z,101830.75
2023-04-27T02:42:31.253Z,101825.53
2023-04-27T02:44:57.939Z,101836.91
2023-04-27T02:47:24.879Z,101835.22
2023-04-27T02:49:53.757Z,101826.50
2023-04-27T02:52:20.658Z,101831.00
2023-04-27T02:54:47.356Z,101827.56
2023-04-27T02:57:14.004Z,101829.19
2023-04-27T02:59:42.928Z,101786.25
2023-04-27T03:02:09.550Z,101814.09
2023-04-27T03:04:36.811Z,101819.38
2023-04-27T03:07:04.356Z,101809.72
2023-04-27T03:09:31.005Z,101802.81
2023-04-27T03:11:57.626Z,101796.25
2023-04-27T03:14:24.286Z,101796.31
2023-04-27T03:16:51.176Z,101801.44
2023-04-27T03:19:17.967Z,101773.72
2023-04-27T03:21:47.358Z,101787.22
2023-04-27T03:24:14.012Z,101798.84
2023-04-27T03:26:40.638Z,101779.25
2023-04-27T03:29:10.245Z,101792.69
2023-04-27T03:31:36.979Z,101787.50
2023-04-27T03:34:05.956Z,101779.75
2023-04-27T03:36:32.819Z,101786.75
2023-04-27T03:38:59.557Z,101752.88
2023-04-27T03:41:26.440Z,101780.59
2023-04-27T03:43:55.728Z,101758.38
2023-04-27T03:46:22.449Z,101768.47
2023-04-27T03:48:49.188Z,101753.38
2023-04-27T03:51:16.459Z,101762.50
2023-04-27T03:53:43.055Z,101758.94
2023-04-27T03:56:12.292Z,101775.78
2023-04-27T03:58:38.938Z,101770.78
2023-04-27T04:01:10.222Z,101734.41
2023-04-27T04:03:37.679Z,101765.88
2023-04-27T04:06:04.652Z,101761.50
2023-04-27T04:08:32.997Z,101760.59
2023-04-27T04:11:00.032Z,101748.66
2023-04-27T04:13:27.156Z,101753.06
2023-04-27T04:16:03.670Z,101751.44
2023-04-27T04:18:35.720Z,101748.09
2023-04-27T04:21:03.434Z,101746.47
2023-04-27T04:23:30.211Z,101745.66
2023-04-27T04:25:56.912Z,101724.63
2023-04-27T04:28:24.034Z,101698.25
2023-04-27T04:30:51.796Z,101716.84
2023-04-27T04:33:18.860Z,101720.19
2023-04-27T04:35:46.294Z,101729.78
2023-04-27T04:38:15.699Z,101728.94
2023-04-27T04:40:44.446Z,101713.72
2023-04-27T04:43:15.665Z,101725.38
2023-04-27T04:45:44.779Z,101735.84
2023-04-27T04:48:11.645Z,101734.31
2023-04-27T04:50:39.581Z,101723.09
2023-04-27T04:53:10.959Z,101741.53
2023-04-27T04:55:39.788Z,101731.94
2023-04-27T04:58:08.725Z,101726.00
2023-04-27T05:00:35.331Z,101726.97
2023-04-27T05:03:02.303Z,101726.16
2023-04-27T05:05:32.063Z,101729.78
2023-04-27T05:07:58.839Z,101715.53
2023-04-27T05:10:27.804Z,101728.34
2023-04-27T05:12:56.909Z,101713.50
2023-04-27T05:15:23.593Z,101735.53
2023-04-27T05:17:50.263Z,101749.59
2023-04-27T05:20:19.125Z,101744.47
2023-04-27T05:22:45.835Z,101744.56
2023-04-27T05:25:14.769Z,101743.66
2023-04-27T05:27:41.365Z,101727.81
2023-04-27T05:30:08.645Z,101723.84
2023-04-27T05:32:36.933Z,101729.41
2023-04-27T05:35:05.156Z,101727.78
2023-04-27T05:37:34.295Z,101736.72
2023-04-27T05:40:01.185Z,101732.63
2023-04-27T05:42:30.022Z,101727.72
2023-04-27T05:44:56.653Z,101709.59
2023-04-27T05:47:23.796Z,101716.72
2023-04-27T05:49:54.242Z,101699.78
2023-04-27T05:52:21.972Z,101737.75
2023-04-27T05:54:51.838Z,101745.69
2023-04-27T05:57:20.810Z,101731.38
2023-04-27T05:59:47.488Z,101757.06
2023-04-27T06:02:14.356Z,101737.09
2023-04-27T06:04:41.193Z,101734.63
2023-04-27T06:07:12.004Z,101725.25
2023-04-27T06:09:38.697Z,101717.44
2023-04-27T06:12:09.112Z,101728.25
2023-04-27T06:14:37.389Z,101726.63
2023-04-27T06:17:04.618Z,101715.28
2023-04-27T06:19:34.426Z,101720.81
2023-04-27T06:22:03.916Z,101732.38
2023-04-27T06:24:30.567Z,101736.09
2023-04-27T06:26:59.270Z,101736.25
2023-04-27T06:29:28.119Z,101729.41
2023-04-27T06:31:54.793Z,101716.47
2023-04-27T06:34:21.660Z,101707.81
2023-04-27T06:36:48.286Z,101718.38
2023-04-27T06:39:17.035Z,101709.63
2023-04-27T06:41:43.706Z,101720.03
2023-04-27T06:44:10.433Z,101716.59
2023-04-27T06:46:37.268Z,101729.59
2023-04-27T06:49:06.502Z,101729.59
2023-04-27T06:51:33.145Z,101726.19
2023-04-27T06:53:59.813Z,101720.03
2023-04-27T06:56:26.566Z,101729.91
2023-04-27T06:58:56.641Z,101728.28
2023-04-27T07:01:23.399Z,101719.56
2023-04-27T07:03:51.414Z,101721.66
2023-04-27T07:06:22.339Z,101731.25
2023-04-27T07:08:51.708Z,101726.88
2023-04-27T07:11:21.013Z,101737.41
2023-04-27T07:13:47.857Z,101729.53
2023-04-27T07:16:16.021Z,101740.16
2023-04-27T07:18:43.619Z,101745.53
2023-04-27T07:21:12.798Z,101747.50
2023-04-27T07:23:41.299Z,101748.47
2023-04-27T07:26:13.197Z,101720.03
2023-04-27T07:28:42.412Z,101747.44
2023-04-27T07:31:09.417Z,101745.66
2023-04-27T07:33:36.719Z,101754.50
2023-04-27T07:36:03.816Z,101747.63
2023-04-27T07:38:32.863Z,101752.91
2023-04-27T07:41:05.771Z,101749.50
2023-04-27T07:43:32.587Z,101751.09
2023-04-27T07:45:59.298Z,101733.94
2023-04-27T07:48:26.153Z,101756.41
2023-04-27T07:50:57.941Z,101746.06
2023-04-27T07:53:24.572Z,101744.31
2023-04-27T07:55:53.969Z,101737.38
2023-04-27T07:58:23.032Z,101725.03
2023-04-27T08:00:49.742Z,101728.78
2023-04-27T08:03:19.492Z,101730.72
2023-04-27T08:05:46.729Z,101718.75
2023-04-27T08:08:13.916Z,101708.25
2023-04-27T08:10:42.989Z,101719.97
2023-04-27T08:13:11.951Z,101715.91
2023-04-27T08:15:43.366Z,101714.19
2023-04-27T08:18:10.034Z,101696.72
2023-04-27T08:20:36.764Z,101711.38
2023-04-27T08:23:05.776Z,101719.41
2023-04-27T08:25:36.402Z,101715.78
2023-04-27T08:28:03.001Z,101708.75
2023-04-27T08:30:29.753Z,101701.88
2023-04-27T08:32:59.003Z,101706.16
2023-04-27T08:35:28.138Z,101671.72
2023-04-27T08:37:54.903Z,101702.97
2023-04-27T08:40:21.719Z,101707.34
2023-04-27T08:42:59.037Z,101725.66
2023-04-27T08:45:27.225Z,101716.00
2023-04-27T08:47:56.237Z,101716.81
2023-04-27T08:50:24.270Z,101703.78
2023-04-27T08:52:52.102Z,101699.50
2023-04-27T08:55:19.326Z,101708.19
2023-04-27T08:58:01.377Z,101701.25
2023-04-27T09:00:41.818Z,101701.31
2023-04-27T09:03:19.710Z,101700.47
2023-04-27T09:06:03.070Z,101697.78
2023-04-27T09:08:53.496Z,101699.72
2023-04-27T09:11:39.873Z,101690.94
2023-04-27T09:14:36.883Z,101700.00
2023-04-27T09:17:03.755Z,101704.34
2023-04-27T09:19:30.849Z,101697.53
2023-04-27T09:22:24.280Z,101687.78
2023-04-27T09:24:55.732Z,101690.34
2023-04-27T09:27:25.183Z,101688.53
2023-04-27T09:29:51.857Z,101687.66
2023-04-27T09:32:21.036Z,101674.69
2023-04-27T09:34:47.860Z,101682.44
2023-04-27T09:37:15.000Z,101686.88
2023-04-27T09:39:45.891Z,101679.00
2023-04-27T09:42:13.133Z,101679.91
2023-04-27T09:44:42.086Z,101694.00
2023-04-27T09:47:13.568Z,101686.13
2023-04-27T09:49:42.548Z,101679.94
2023-04-27T09:52:10.395Z,101675.69
2023-04-27T09:54:37.450Z,101642.13
2023-04-27T09:57:28.873Z,101662.88
2023-04-27T10:00:16.390Z,101653.47
2023-04-27T10:05:46.806Z,101646.09
2023-04-27T10:08:14.028Z,101626.69
2023-04-27T10:10:50.770Z,101641.25
2023-04-27T10:13:24.757Z,101642.34
2023-04-27T10:15:52.484Z,101626.50
2023-04-27T10:18:31.127Z,101637.31
2023-04-27T10:21:09.978Z,101631.34
2023-04-27T10:23:50.766Z,101616.44
2023-04-27T10:26:28.246Z,101631.75
2023-04-27T10:29:08.556Z,101624.06
2023-04-27T10:31:36.147Z,101604.03
2023-04-27T10:34:08.711Z,101590.72
2023-04-27T10:36:40.541Z,101610.44
2023-04-27T10:39:39.672Z,101602.66
2023-04-27T10:42:13.056Z,101605.44
2023-04-27T10:44:42.477Z,101593.31
2023-04-27T10:47:17.094Z,101578.34
2023-04-27T10:49:43.821Z,101596.31
2023-04-27T10:52:12.878Z,101602.41
2023-04-27T10:54:40.041Z,101601.53
2023-04-27T10:57:11.487Z,101606.81
2023-04-27T10:59:51.072Z,101605.81
2023-04-27T11:02:20.549Z,101591.44
2023-04-27T11:04:49.569Z,101593.56
2023-04-27T11:07:27.895Z,101601.59
2023-04-27T11:09:55.670Z,101584.94
2023-04-27T11:12:22.541Z,101591.03
2023-04-27T11:14:51.399Z,101600.50
2023-04-27T11:17:29.199Z,101601.47
2023-04-27T11:19:58.093Z,101596.19
2023-04-27T11:22:27.603Z,101598.00
2023-04-27T11:24:54.340Z,101595.53
2023-04-27T11:27:25.398Z,101588.56
2023-04-27T11:29:55.026Z,101545.22
2023-04-27T11:32:23.189Z,101581.28
2023-04-27T11:34:55.586Z,101528.19
2023-04-27T11:37:25.666Z,101571.44
2023-04-27T11:39:57.837Z,101565.41
2023-04-27T11:42:26.449Z,101560.66
2023-04-27T11:44:58.623Z,101545.31
2023-04-27T11:47:27.959Z,101548.31
2023-04-27T11:49:56.984Z,101537.19
2023-04-27T11:52:32.173Z,101528.97
2023-04-27T11:55:02.591Z,101538.75
2023-04-27T11:57:31.844Z,101534.47
2023-04-27T12:00:11.153Z,101520.44
2023-04-27T12:02:41.599Z,101524.59
2023-04-27T12:05:09.926Z,101517.34
2023-04-27T12:07:41.950Z,101525.88
2023-04-27T12:10:09.332Z,101528.53
2023-04-27T12:12:36.121Z,101536.50
2023-04-27T12:15:05.247Z,101488.81
2023-04-27T12:17:33.004Z,101519.06
2023-04-27T12:19:59.763Z,101514.84
2023-04-27T12:22:26.950Z,101456.75
2023-04-27T12:24:56.167Z,101460.75
2023-04-27T12:27:22.857Z,101489.75
2023-04-27T12:29:49.561Z,101492.91
2023-04-27T12:32:18.744Z,101446.41
2023-04-27T12:34:46.192Z,101473.41
2023-04-27T12:37:12.953Z,101488.78
2023-04-27T12:39:39.635Z,101491.25
2023-04-27T12:42:06.443Z,101471.63
2023-04-27T12:44:33.076Z,101483.22
2023-04-27T12:46:59.849Z,101476.09
2023-04-27T12:49:26.887Z,101421.88
2023-04-27T12:51:57.402Z,101455.31
2023-04-27T12:54:26.870Z,101463.09
2023-04-27T12:56:53.641Z,101451.56
2023-04-27T12:59:20.510Z,101447.16
2023-04-27T13:01:47.349Z,101439.09
2023-04-27T13:04:20.988Z,101443.44
2023-04-27T13:06:48.327Z,101412.59
2023-04-27T13:09:15.601Z,101424.16
2023-04-27T13:11:42.302Z,101434.56
2023-04-27T13:14:09.927Z,101445.81
2023-04-27T13:16:36.714Z,101428.72
2023-04-27T13:19:03.381Z,101442.72
2023-04-27T13:21:33.269Z,101445.19
2023-04-27T13:24:00.498Z,101432.88
2023-04-27T13:26:27.265Z,101425.09
2023-04-27T13:28:56.245Z,101417.25
2023-04-27T13:31:23.466Z,101415.53
2023-04-27T13:33:50.153Z,101432.19
2023-04-27T13:36:16.955Z,101441.78
2023-04-27T13:38:43.645Z,101440.94
2023-04-27T13:41:12.343Z,101454.88
2023-04-27T13:43:42.161Z,101465.44
2023-04-27T13:46:08.866Z,101457.44
2023-04-27T13:48:35.670Z,101447.69
2023-04-27T13:51:03.694Z,101451.16
2023-04-27T13:53:30.509Z,101473.22
2023-04-27T13:55:58.412Z,101476.72
2023-04-27T13:58:29.290Z,101445.63
2023-04-27T14:00:58.336Z,101435.91
2023-04-27T14:03:25.303Z,101456.47
2023-04-27T14:05:52.264Z,101474.91
2023-04-27T14:08:19.404Z,101478.41
2023-04-27T14:10:46.571Z,101464.06
2023-04-27T14:13:15.468Z,101479.66
2023-04-27T14:15:42.252Z,101487.06
2023-04-27T14:18:11.748Z,101491.03
2023-04-27T14:20:40.320Z,101503.16
2023-04-27T14:23:07.090Z,101502.03
2023-04-27T14:25:36.594Z,101495.69
2023-04-27T14:28:07.104Z,101505.31
2023-04-27T14:30:35.118Z,101517.38
2023-04-27T14:33:04.412Z,101494.38
2023-04-27T14:35:33.542Z,101481.94
2023-04-27T14:38:02.548Z,101464.25
2023-04-27T14:40:30.524Z,101443.13
2023-04-27T14:42:58.462Z,101412.13
2023-04-27T14:45:27.569Z,101422.50
2023-04-27T14:48:02.668Z,101401.22
2023-04-27T14:50:29.638Z,101415.63
2023-04-27T14:52:58.912Z,101407.78
2023-04-27T14:55:25.685Z,101383.66
2023-04-27T14:57:52.474Z,101403.38
2023-04-27T15:00:19.396Z,101400.69
2023-04-27T15:02:48.844Z,101397.03
2023-04-27T15:05:15.592Z,101384.78
2023-04-27T15:07:42.255Z,101347.63
2023-04-27T15:10:11.743Z,101364.91
2023-04-27T15:12:38.501Z,101372.81
2023-04-27T15:15:07.352Z,101353.88
2023-04-27T15:17:35.558Z,101372.28
2023-04-27T15:20:06.025Z,101355.31
2023-04-27T15:22:34.993Z,101341.16
2023-04-27T15:25:01.717Z,101312.50
2023-04-27T15:27:28.471Z,101309.75
2023-04-27T15:29:57.472Z,101309.81
2023-04-27T15:32:30.121Z,101294.00
2023-04-27T15:35:00.492Z,101266.59
2023-04-27T15:37:29.748Z,101258.09
2023-04-27T15:39:57.046Z,101270.44
2023-04-27T15:42:26.314Z,101270.38
2023-04-27T15:44:53.012Z,101256.22
2023-04-27T15:47:19.702Z,101236.53
2023-04-27T15:49:57.034Z,101237.19
2023-04-27T15:52:27.286Z,101275.28
2023-04-27T15:54:55.111Z,101264.28
2023-04-27T15:57:24.482Z,101260.88
2023-04-27T15:59:53.537Z,101290.94
2023-04-27T16:02:20.450Z,101275.19
2023-04-27T16:04:49.949Z,101251.53
2023-04-27T16:07:16.635Z,101271.75
2023-04-27T16:09:43.377Z,101238.81
2023-04-27T16:12:13.249Z,101279.53
2023-04-27T16:14:40.524Z,101265.22
2023-04-27T16:17:07.405Z,101280.25
2023-04-27T16:19:34.221Z,101265.22
2023-04-27T16:22:04.387Z,101250.06
2023-04-27T16:24:33.333Z,101257.41
2023-04-27T16:26:59.972Z,101253.84
2023-04-27T16:29:26.640Z,101247.72
2023-04-27T16:31:53.371Z,101260.88
2023-04-27T16:34:20.117Z,101263.44
2023-04-27T16:36:49.934Z,101259.88
2023-04-27T16:39:19.106Z,101247.78
2023-04-27T16:41:46.097Z,101238.25
2023-04-27T16:44:15.578Z,101254.84
2023-04-27T16:46:45.082Z,101238.16
2023-04-27T16:49:14.807Z,101239.25
2023-04-27T16:51:41.623Z,101222.81
2023-04-27T16:54:11.076Z,101208.16
2023-04-27T16:56:40.161Z,101150.03
2023-04-27T16:59:12.673Z,101178.56
2023-04-27T17:01:40.027Z,101180.28
2023-04-27T17:04:06.801Z,101179.44
2023-04-27T17:06:34.934Z,101179.44
2023-04-27T17:09:01.913Z,101168.09
2023-04-27T17:11:28.636Z,101151.47
2023-04-27T17:13:57.600Z,101170.81
2023-04-27T17:16:27.291Z,101152.41
2023-04-27T17:18:54.589Z,101163.63
2023-04-27T17:21:22.768Z,101168.97
2023-04-27T17:23:51.691Z,101164.63
2023-04-27T17:26:21.705Z,101140.88
2023-04-27T17:28:49.667Z,101156.94
2023-04-27T17:31:19.251Z,101156.94
2023-04-27T17:33:48.133Z,101154.22
2023-04-27T17:36:17.513Z,101137.38
2023-04-27T17:38:44.295Z,101163.19
2023-04-27T17:41:11.188Z,101161.47
2023-04-27T17:43:38.098Z,101150.97
2023-04-27T17:46:09.810Z,101133.59
2023-04-27T17:48:39.045Z,101127.47
2023-04-27T17:51:05.974Z,101130.06
2023-04-27T17:53:35.163Z,101138.88
2023-04-27T17:56:01.919Z,101129.34
2023-04-27T17:58:28.750Z,101100.16
2023-04-27T18:00:55.508Z,101118.78
2023-04-27T18:03:22.492Z,101116.34
2023-04-27T18:05:49.324Z,101111.97
2023-04-27T18:08:16.110Z,101073.00
2023-04-27T18:10:43.209Z,101110.34
2023-04-27T18:13:13.078Z,101100.78
2023-04-27T18:15:41.967Z,101106.06
2023-04-27T18:18:11.159Z,101093.91
2023-04-27T18:20:38.115Z,101079.03
2023-04-27T18:23:04.866Z,101046.59
2023-04-27T18:25:32.128Z,101078.31
2023-04-27T18:28:02.289Z,101061.00
2023-04-27T18:30:33.456Z,101044.56
2023-04-27T18:33:00.185Z,101085.44
2023-04-27T18:35:29.216Z,101081.63
2023-04-27T18:37:56.027Z,101085.34
2023-04-27T18:40:23.282Z,101066.81
2023-04-27T18:42:50.191Z,101084.28
2023-04-27T18:45:19.405Z,101085.16
2023-04-27T18:47:46.128Z,101092.13
2023-04-27T18:50:15.317Z,101064.00
2023-04-27T18:52:44.518Z,101086.13
2023-04-27T18:55:14.386Z,101090.50
2023-04-27T18:57:41.225Z,101081.69
2023-04-27T19:00:09.085Z,101090.44
2023-04-27T19:02:35.956Z,101087.84
2023-04-27T19:05:12.929Z,101078.47
2023-04-27T19:07:42.526Z,101080.25
2023-04-27T19:10:09.670Z,101072.44
2023-04-27T19:12:36.477Z,101067.34
2023-04-27T19:15:03.815Z,101074.41
2023-04-27T19:17:32.877Z,101063.22
2023-04-27T19:19:59.685Z,101073.66
2023-04-27T19:22:27.979Z,101070.19
2023-04-27T19:24:57.264Z,101068.44
2023-04-27T19:27:23.931Z,101066.56
2023-04-27T19:29:53.293Z,101067.59
2023-04-27T19:32:25.400Z,101071.13
2023-04-27T19:34:52.445Z,101064.09
2023-04-27T19:37:21.950Z,101071.28
2023-04-27T19:39:51.264Z,101078.28
2023-04-27T19:42:17.993Z,101068.63
2023-04-27T19:44:44.753Z,101076.59
2023-04-27T19:47:11.679Z,101071.50
2023-04-27T19:49:38.954Z,101057.31
2023-04-27T19:52:06.641Z,101067.16
2023-04-27T19:54:33.316Z,101028.13
2023-04-27T19:56:59.967Z,101030.09
2023-04-27T19:59:27.281Z,101055.06
2023-04-27T20:01:53.998Z,101051.50
2023-04-27T20:04:21.232Z,101055.13
2023-04-27T20:06:50.900Z,101053.56
2023-04-27T20:09:22.496Z,101060.59
2023-04-27T20:11:49.183Z,101056.31
2023-04-27T20:14:16.068Z,101039.63
2023-04-27T20:16:42.975Z,101025.63
2023-04-27T20:19:10.982Z,101038.19
2023-04-27T20:21:37.730Z,101047.03
2023-04-27T20:24:10.182Z,101042.69
2023-04-27T20:26:36.823Z,101043.59
2023-04-27T20:29:03.446Z,101041.81
2023-04-27T20:31:30.127Z,101037.53
2023-04-27T20:33:56.926Z,101043.84
2023-04-27T20:36:23.650Z,101028.03
2023-04-27T20:38:50.437Z,101048.31
2023-04-27T20:41:21.573Z,101050.09
2023-04-27T20:43:52.540Z,101039.75
2023-04-27T20:46:21.787Z,101044.19
2023-04-27T20:48:50.885Z,101042.44
2023-04-27T20:51:17.786Z,101023.06
2023-04-27T20:53:46.780Z,101036.38
2023-04-27T20:56:13.424Z,101018.00
2023-04-27T20:58:42.395Z,101034.00
2023-04-27T21:01:11.451Z,101037.59
2023-04-27T21:03:38.415Z,101036.75
2023-04-27T21:06:05.572Z,101029.94
2023-04-27T21:08:32.240Z,101020.31
2023-04-27T21:10:59.006Z,101026.50
2023-04-27T21:13:25.782Z,101032.69
2023-04-27T21:15:54.734Z,101031.06
2023-04-27T21:20:55.628Z,101025.06
2023-04-27T21:23:24.768Z,101006.50
2023-04-27T21:25:54.036Z,101022.50
2023-04-27T21:28:22.874Z,101022.50
2023-04-27T21:30:49.595Z,101007.41
2023-04-27T21:33:18.609Z,101026.09
2023-04-27T21:35:47.490Z,101011.03
2023-04-27T21:38:14.088Z,101030.53
2023-04-27T21:40:43.148Z,101027.97
2023-04-27T21:43:09.844Z,101004.97
2023-04-27T21:45:37.920Z,100998.91
2023-04-27T21:48:07.132Z,101013.19
2023-04-27T21:50:33.786Z,101028.22
2023-04-27T21:53:02.939Z,100998.25
2023-04-27T21:55:32.180Z,101023.97
2023-04-27T21:57:58.938Z,101025.69
2023-04-27T22:00:25.645Z,101031.81
2023-04-27T22:02:52.368Z,101026.59
2023-04-27T22:05:21.996Z,101024.91
2023-04-27T22:07:48.722Z,101022.22
2023-04-27T22:10:15.969Z,101025.84
2023-04-27T22:12:42.558Z,101015.19
2023-04-27T22:15:09.551Z,101002.06
2023-04-27T22:17:39.654Z,100980.91
2023-04-27T22:20:13.084Z,101018.94
2023-04-27T22:22:41.078Z,101014.47
2023-04-27T22:25:08.145Z,101015.41
2023-04-27T22:27:42.039Z,101019.00
2023-04-27T22:30:11.658Z,101018.16
2023-04-27T22:32:38.466Z,101019.91
2023-04-27T22:35:06.991Z,101009.31
2023-04-27T22:37:40.145Z,101014.63
2023-04-27T22:40:08.763Z,101011.09
2023-04-27T22:42:35.462Z,101014.56
2023-04-27T22:45:04.691Z,100987.13
2023-04-27T22:47:31.430Z,101012.81
2023-04-27T22:49:58.112Z,101010.09
2023-04-27T22:52:25.041Z,101011.69
2023-04-27T22:54:51.626Z,101017.06
2023-04-27T22:57:20.539Z,101008.16
2023-04-27T22:59:51.603Z,101009.09
2023-04-27T23:02:18.331Z,101009.09
2023-04-27T23:04:45.099Z,101007.25
2023-04-27T23:07:17.266Z,101015.13
2023-04-27T23:09:48.225Z,101001.88
2023-04-27T23:12:14.880Z,101020.41
2023-04-27T23:14:42.406Z,101024.75
2023-04-27T23:17:10.337Z,101000.09
2023-04-27T23:19:37.324Z,101011.53
2023-04-27T23:22:04.023Z,101025.63
2023-04-27T23:24:30.715Z,101021.06
2023-04-27T23:26:57.745Z,101023.84
2023-04-27T23:29:30.334Z,101016.81
2023-04-27T23:32:03.704Z,101026.34
2023-04-27T23:34:32.493Z,101019.28
2023-04-27T23:36:59.599Z,101024.56
2023-04-27T23:39:29.945Z,101022.78
2023-04-27T23:41:56.579Z,101021.03
2023-04-27T23:44:23.172Z,101027.06
2023-04-27T23:46:49.780Z,101034.03
2023-04-27T23:49:16.386Z,101032.25
2023-04-27T23:51:43.107Z,101022.56
2023-04-27T23:54:09.991Z,101031.31
2023-04-27T23:56:36.918Z,101033.06
2023-04-27T23:59:03.627Z,101032.97
